Midway, Minnesota
Current Conditions -  °F | °C
As of 3:53 PM on Monday 22 Dec 2014 (Local Time) from KPKD Reporting Station
Haze Haze  
Wind Chill: 29°   Ceiling: 700
Heat Index: 35°   Visibility: 6mi
Dew Point: 34°   Wind: 7mph
Humidity: 96%   Direction: 110°ESE
Pressure: 29.57"   Gusts: NA
Location:  46.7591°N, 94.9748°W
Report Text: KPKD 222153Z AUTO 11006KT 6SM UP BR OVC007 02/01 A2957 RMK AO2 RAE2054UPB2054 CIG 004V011 SLP029 P0001 T00170011
Loading
Personal Weather Stations






























Interactive Weather Map New forecast layout! Learn more

10-Day Weather Forecast

Advertisements
Track Severe Weather on mobile